createdAt,value
2023-12-12T00:01:53.154Z,73.40
2023-12-12T00:06:57.958Z,73.20
2023-12-12T00:12:01.563Z,73.10
2023-12-12T00:17:05.240Z,73.10
2023-12-12T00:22:10.390Z,72.90
2023-12-12T00:27:13.799Z,72.90
2023-12-12T00:32:17.168Z,72.90
2023-12-12T00:37:22.045Z,72.70
2023-12-12T00:42:25.414Z,72.60
2023-12-12T00:47:28.972Z,72.60
2023-12-12T00:52:33.759Z,72.60
2023-12-12T00:57:37.763Z,72.50
2023-12-12T01:02:41.178Z,72.50
2023-12-12T01:07:46.236Z,72.50
2023-12-12T01:12:49.782Z,72.50
2023-12-12T01:17:53.182Z,72.40
2023-12-12T01:22:58.053Z,72.30
2023-12-12T01:28:01.882Z,72.20
2023-12-12T01:33:05.505Z,72.30
2023-12-12T01:38:10.263Z,72.20
2023-12-12T01:43:13.666Z,72.00
2023-12-12T01:48:17.298Z,72.10
2023-12-12T01:53:25.365Z,72.10
2023-12-12T01:58:28.731Z,71.80
2023-12-12T02:03:33.275Z,72.00
2023-12-12T02:08:38.122Z,72.00
2023-12-12T02:13:41.451Z,71.80
2023-12-12T02:18:44.930Z,71.80
2023-12-12T02:23:49.703Z,71.80
2023-12-12T02:28:53.590Z,71.70
2023-12-12T02:33:56.950Z,71.80
2023-12-12T02:39:01.766Z,71.80
2023-12-12T02:44:07.027Z,71.80
2023-12-12T02:49:11.247Z,72.00
2023-12-12T02:54:16.095Z,72.00
2023-12-12T02:59:19.456Z,72.00
2023-12-12T03:04:22.792Z,72.00
2023-12-12T03:09:27.511Z,72.00
2023-12-12T03:14:30.973Z,72.10
2023-12-12T03:19:34.596Z,73.00
2023-12-12T03:24:39.446Z,72.10
2023-12-12T03:29:42.778Z,72.10
2023-12-12T03:34:46.119Z,72.20
2023-12-12T03:39:50.871Z,72.20
2023-12-12T03:44:54.292Z,72.10
2023-12-12T03:49:57.728Z,72.20
2023-12-12T03:55:02.489Z,72.20
2023-12-12T04:00:08.719Z,72.00
2023-12-12T04:05:18.243Z,72.00
2023-12-12T04:10:23.192Z,71.90
2023-12-12T04:15:26.599Z,71.80
2023-12-12T04:20:30.767Z,71.80
2023-12-12T04:25:35.495Z,71.80
2023-12-12T04:30:38.813Z,71.80
2023-12-12T04:35:42.113Z,71.90
2023-12-12T04:40:46.732Z,72.00
2023-12-12T04:45:50.143Z,72.00
2023-12-12T04:50:53.485Z,72.10
2023-12-12T04:55:58.224Z,72.00
2023-12-12T05:01:01.652Z,72.00
2023-12-12T05:06:05.698Z,72.00
2023-12-12T05:11:10.486Z,72.00
2023-12-12T05:16:24.281Z,71.90
2023-12-12T05:21:34.725Z,71.90
2023-12-12T05:26:39.374Z,72.70
2023-12-12T05:31:42.773Z,71.80
2023-12-12T05:36:46.190Z,71.80
2023-12-12T05:41:50.946Z,71.90
2023-12-12T05:46:54.249Z,71.90
2023-12-12T05:51:57.730Z,71.90
2023-12-12T05:57:02.415Z,71.90
2023-12-12T06:02:06.175Z,71.90
2023-12-12T06:07:09.721Z,72.00
2023-12-12T06:12:15.485Z,72.00
2023-12-12T06:17:18.824Z,72.00
2023-12-12T06:22:22.594Z,72.60
2023-12-12T06:27:27.331Z,72.40
2023-12-12T06:32:31.049Z,72.20
2023-12-12T06:37:34.848Z,72.20
2023-12-12T06:42:39.657Z,72.20
2023-12-12T06:47:42.998Z,72.10
2023-12-12T06:52:46.348Z,72.20
2023-12-12T06:57:57.572Z,72.20
2023-12-12T07:03:01.424Z,72.80
2023-12-12T07:08:06.078Z,72.70
2023-12-12T07:13:13.107Z,72.60
2023-12-12T07:18:16.596Z,72.50
2023-12-12T07:23:20.045Z,72.40
2023-12-12T07:28:24.920Z,72.40
2023-12-12T07:33:28.468Z,72.40
2023-12-12T07:38:31.882Z,72.40
2023-12-12T07:43:36.852Z,72.50
2023-12-12T07:48:40.162Z,72.30
2023-12-12T07:53:43.930Z,72.70
2023-12-12T07:58:48.790Z,72.50
2023-12-12T08:03:53.550Z,72.80
2023-12-12T08:08:56.855Z,72.60
2023-12-12T08:14:01.890Z,72.50
2023-12-12T08:19:05.780Z,72.30
2023-12-12T08:24:09.838Z,73.50
2023-12-12T08:29:15.534Z,72.90
2023-12-12T08:34:18.924Z,72.50
2023-12-12T08:39:22.227Z,72.40
2023-12-12T08:44:27.185Z,72.30
2023-12-12T08:49:30.657Z,72.10
2023-12-12T08:54:34.194Z,72.10
2023-12-12T08:59:40.632Z,72.10
2023-12-12T09:04:44.050Z,72.00
2023-12-12T09:09:47.454Z,72.00
2023-12-12T09:14:52.258Z,72.00
2023-12-12T09:19:55.876Z,72.00
2023-12-12T09:24:59.205Z,72.00
2023-12-12T09:30:07.828Z,72.00
2023-12-12T09:35:11.491Z,71.80
2023-12-12T09:40:15.057Z,71.90
2023-12-12T09:45:20.348Z,71.90
2023-12-12T09:50:23.821Z,71.90
2023-12-12T09:55:27.601Z,72.30
2023-12-12T10:00:33.095Z,72.40
2023-12-12T10:05:40.090Z,72.30
2023-12-12T10:10:43.761Z,71.90
2023-12-12T10:15:48.911Z,72.00
2023-12-12T10:20:52.221Z,72.00
2023-12-12T10:25:57.522Z,71.80
2023-12-12T10:31:02.694Z,71.80
2023-12-12T10:36:10.150Z,71.50
2023-12-12T10:41:15.392Z,71.50
2023-12-12T10:46:22.003Z,71.40
2023-12-12T10:51:27.473Z,71.20
2023-12-12T10:56:37.128Z,71.10
2023-12-12T11:01:42.230Z,71.20
2023-12-12T11:06:46.671Z,71.00
2023-12-12T11:11:52.484Z,70.90
2023-12-12T11:17:00.054Z,70.80
2023-12-12T11:22:04.363Z,70.60
2023-12-12T11:27:08.850Z,70.80
2023-12-12T11:32:17.985Z,70.60
2023-12-12T11:37:24.273Z,71.00
2023-12-12T11:42:27.775Z,70.80
2023-12-12T11:47:33.267Z,70.60
2023-12-12T11:52:51.836Z,70.10
2023-12-12T11:58:00.367Z,69.50
2023-12-12T12:03:06.570Z,69.70
2023-12-12T12:08:10.474Z,69.80
2023-12-12T12:13:13.971Z,69.90
2023-12-12T12:18:28.982Z,69.70
2023-12-12T12:23:33.538Z,69.10
2023-12-12T12:28:38.239Z,69.70
2023-12-12T12:33:42.921Z,69.60
2023-12-12T12:38:46.320Z,69.50
2023-12-12T12:43:53.874Z,69.60
2023-12-12T12:48:58.887Z,69.30
2023-12-12T12:54:02.296Z,69.40
2023-12-12T12:59:05.654Z,69.50
2023-12-12T13:04:12.075Z,69.30
2023-12-12T13:09:19.177Z,69.50
2023-12-12T13:14:22.646Z,73.80
2023-12-12T13:19:28.483Z,77.50
2023-12-12T13:24:36.291Z,79.50
2023-12-12T13:29:41.958Z,76.30
2023-12-12T13:34:51.305Z,73.40
2023-12-12T13:39:54.942Z,70.90
2023-12-12T13:44:58.300Z,70.30
2023-12-12T13:50:03.135Z,68.80
2023-12-12T13:55:07.423Z,67.80
2023-12-12T14:00:13.556Z,67.30
2023-12-12T14:05:19.696Z,66.90
2023-12-12T14:10:24.277Z,66.50
2023-12-12T14:15:27.684Z,66.60
2023-12-12T14:20:32.369Z,66.50
2023-12-12T14:25:35.678Z,66.30
2023-12-12T14:30:39.632Z,66.30
2023-12-12T14:35:44.387Z,66.30
2023-12-12T14:40:49.239Z,66.30
2023-12-12T14:45:52.674Z,66.60
2023-12-12T14:50:57.657Z,66.70
2023-12-12T14:56:01.104Z,66.70
2023-12-12T15:01:04.605Z,66.90
2023-12-12T15:06:09.999Z,67.00
2023-12-12T15:11:13.378Z,67.00
2023-12-12T15:16:17.000Z,67.10
2023-12-12T15:21:25.632Z,67.20
2023-12-12T15:26:29.408Z,67.30
2023-12-12T15:31:32.884Z,67.30
2023-12-12T15:36:37.951Z,67.40
2023-12-12T15:41:41.220Z,67.40
2023-12-12T15:46:44.588Z,67.40
2023-12-12T15:51:49.271Z,67.40
2023-12-12T15:56:52.647Z,67.40
2023-12-12T16:01:58.741Z,67.40
2023-12-12T16:07:04.305Z,67.40
2023-12-12T16:12:09.534Z,67.20
2023-12-12T16:17:13.385Z,67.20
2023-12-12T16:22:18.140Z,67.20
2023-12-12T16:27:21.526Z,67.20
2023-12-12T16:32:24.939Z,67.30
2023-12-12T16:37:29.825Z,67.20
2023-12-12T16:42:33.509Z,67.10
2023-12-12T16:47:39.095Z,67.20
2023-12-12T16:52:44.984Z,67.30
2023-12-12T16:57:48.521Z,67.10
2023-12-12T17:02:53.211Z,67.30
2023-12-12T17:07:58.264Z,67.30
2023-12-12T17:13:01.735Z,67.10
2023-12-12T17:18:06.173Z,67.20
2023-12-12T17:23:11.125Z,67.30
2023-12-12T17:28:14.712Z,67.10
2023-12-12T17:33:18.204Z,67.30
2023-12-12T17:38:23.363Z,67.20
2023-12-12T17:43:26.835Z,67.10
2023-12-12T17:48:30.334Z,67.10
2023-12-12T17:53:35.070Z,67.20
2023-12-12T17:58:38.380Z,67.30
2023-12-12T18:03:43.718Z,67.30
2023-12-12T18:08:48.979Z,67.20
2023-12-12T18:13:52.364Z,67.20
2023-12-12T18:18:56.098Z,67.20
2023-12-12T18:24:01.320Z,67.40
2023-12-12T18:29:06.173Z,67.70
2023-12-12T18:34:09.818Z,68.00
2023-12-12T18:39:16.220Z,68.10
2023-12-12T18:44:19.912Z,68.60
2023-12-12T18:49:23.741Z,68.50
2023-12-12T18:54:28.931Z,68.30
2023-12-12T18:59:33.609Z,68.10
2023-12-12T19:04:38.714Z,67.90
2023-12-12T19:09:45.092Z,67.80
2023-12-12T19:14:50.072Z,67.80
2023-12-12T19:19:55.380Z,67.90
2023-12-12T19:25:02.811Z,68.00
2023-12-12T19:30:11.956Z,68.20
2023-12-12T19:35:17.908Z,68.10
2023-12-12T19:40:27.636Z,68.20
2023-12-12T19:45:32.970Z,68.00
2023-12-12T19:50:38.595Z,68.20
2023-12-12T19:55:46.005Z,68.10
2023-12-12T20:00:51.619Z,68.10
2023-12-12T20:05:57.064Z,68.10
2023-12-12T20:11:05.158Z,68.20
2023-12-12T20:16:21.401Z,68.20
2023-12-12T20:21:29.742Z,68.40
2023-12-12T20:26:38.427Z,68.50
2023-12-12T20:31:48.386Z,68.50
2023-12-12T20:36:57.235Z,68.70
2023-12-12T20:42:05.840Z,68.70
2023-12-12T20:47:12.279Z,68.90
2023-12-12T20:52:17.800Z,69.00
2023-12-12T20:57:25.541Z,69.10
2023-12-12T21:02:29.094Z,70.20
2023-12-12T21:07:32.764Z,69.80
2023-12-12T21:12:37.486Z,69.70
2023-12-12T21:17:40.890Z,71.40
2023-12-12T21:22:44.370Z,70.10
2023-12-12T21:27:49.111Z,70.00
2023-12-12T21:32:52.407Z,70.00
2023-12-12T21:37:55.842Z,69.90
2023-12-12T21:43:00.837Z,69.90
2023-12-12T21:48:04.249Z,70.50
2023-12-12T21:53:07.628Z,70.00
2023-12-12T21:58:12.346Z,70.00
2023-12-12T22:03:15.655Z,70.20
2023-12-12T22:08:18.959Z,70.10
2023-12-12T22:13:23.834Z,70.20
2023-12-12T22:18:27.163Z,71.40
2023-12-12T22:23:30.505Z,70.30
2023-12-12T22:28:35.148Z,70.40
2023-12-12T22:33:38.994Z,70.50
2023-12-12T22:38:42.284Z,70.50
2023-12-12T22:43:47.025Z,70.50
2023-12-12T22:48:50.494Z,70.70
2023-12-12T22:53:53.859Z,70.60
2023-12-12T22:59:00.268Z,70.70
2023-12-12T23:04:04.335Z,70.90
2023-12-12T23:09:10.186Z,70.70
2023-12-12T23:14:14.772Z,70.90
2023-12-12T23:19:18.236Z,70.90
2023-12-12T23:24:21.895Z,70.90
2023-12-12T23:29:26.543Z,71.10
2023-12-12T23:34:29.912Z,71.30
2023-12-12T23:39:33.289Z,71.30
2023-12-12T23:44:38.040Z,71.30
2023-12-12T23:49:41.664Z,71.40
2023-12-12T23:54:45.071Z,71.40
2023-12-12T23:59:50.038Z,71.40
